Latest Weather Observations for St Kilda Harbour RMYS

IDV60901

Issued at 11:21 pm EDT Sunday 24 October 2021 (issued every 10 minutes, with the page automatically refreshed every 10 minutes)

About weather observations | Map of Melbourne area stations | Latest observations for Melbourne area | Other Formats
Station Details ID: 086220 Name: ST KILDA HARBOUR - RMYS Lat: -37.86 Lon: 144.96 Height: 6.4 m
Data from the previous 72 hours. | See also: Recent months at St Kilda Harbour RMYS
Date/Time
EDT
Temp
°C
App
Temp
°C
Dew
Point
°C
Rel
Hum
%
Delta-T
°C
Wind Press
QNH
hPa
Press
MSL
hPa
Rain since
9am
mm
Dir  Spd
km/h
Gust
km/h
Spd
kts
Gust
kts
24/11:00pm - - - - - SW 41 46 22 25 - - -
24/10:30pm - - - - - SSW 41 48 22 26 - - -
24/10:00pm - - - - - SSW 37 46 20 25 - - -
24/09:30pm - - - - - SW 39 50 21 27 - - -
24/09:00pm - - - - - SW 35 44 19 24 - - -
24/08:30pm - - - - - SSW 39 44 21 24 - - -
24/08:00pm - - - - - SSW 41 50 22 27 - - -
24/07:30pm - - - - - SSW 43 56 23 30 - - -
24/07:00pm - - - - - SSW 41 48 22 26 - - -
24/06:30pm - - - - - SSW 43 50 23 27 - - -
24/06:00pm - - - - - SSW 41 48 22 26 - - -
24/05:30pm - - - - - SSW 39 46 21 25 - - -
24/05:00pm - - - - - SSW 43 50 23 27 - - -
24/04:30pm - - - - - SSW 41 48 22 26 - - -
24/04:00pm - - - - - S 35 43 19 23 - - -
24/03:30pm - - - - - SSW 35 43 19 23 - - -
24/03:00pm - - - - - S 37 41 20 22 - - -
24/02:30pm - - - - - SSW 35 43 19 23 - - -
24/02:00pm - - - - - SSW 37 48 20 26 - - -
24/01:30pm - - - - - SW 35 41 19 22 - - -
24/01:00pm - - - - - SSW 43 52 23 28 - - -
24/12:30pm - - - - - SSW 37 44 20 24 - - -
24/12:00pm - - - - - SW 33 41 18 22 - - -
24/11:30am - - - - - SW 35 43 19 23 - - -
24/11:00am - - - - - SSW 39 50 21 27 - - -
24/10:30am - - - - - SSW 37 46 20 25 - - -
24/10:00am - - - - - SSW 32 44 17 24 - - -
24/09:30am - - - - - SSW 50 61 27 33 - - -
24/09:25am - - - - - SSW 41 61 22 33 - - -
24/09:23am - - - - - SSW 37 61 20 33 - - -
24/09:00am - - - - - SSW 30 37 16 20 - - -
24/08:52am - - - - - SSW 39 54 21 29 - - -
24/08:30am - - - - - SW 37 54 20 29 - - -
24/08:14am - - - - - SW 32 50 17 27 - - -
24/08:00am - - - - - SW 30 35 16 19 - - -
24/07:50am - - - - - WSW 30 37 16 20 - - -
24/07:30am - - - - - WSW 37 48 20 26 - - -
24/07:08am - - - - - SW 37 46 20 25 - - -
24/07:03am - - - - - SW 33 46 18 25 - - -
24/07:00am - - - - - WSW 33 41 18 22 - - -
24/06:30am - - - - - WSW 33 37 18 20 - - -
24/06:00am - - - - - WSW 32 35 17 19 - - -
24/05:30am - - - - - WSW 33 39 18 21 - - -
24/05:00am - - - - - WSW 37 43 20 23 - - -
24/04:30am - - - - - WSW 39 46 21 25 - - -
24/04:00am - - - - - WSW 37 43 20 23 - - -
24/03:30am - - - - - WSW 39 46 21 25 - - -
24/03:00am - - - - - WSW 35 41 19 22 - - -
24/02:30am - - - - - WSW 33 39 18 21 - - -
24/02:00am - - - - - WSW 37 41 20 22 - - -
24/01:30am - - - - - SW 33 44 18 24 - - -
24/01:11am - - - - - SW 33 46 18 25 - - -
24/01:00am - - - - - WSW 35 48 19 26 - - -
24/12:30am - - - - - SSW 33 41 18 22 - - -
24/12:00am - - - - - SSW 37 44 20 24 - - -
 
Date/Time
EDT
Temp
°C
App
Temp
°C
Dew
Point
°C
Rel
Hum
%
Delta-T
°C
Wind Press
QNH
hPa
Press
MSL
hPa
Rain since
9am
mm
Dir  Spd
km/h
Gust
km/h
Spd
kts
Gust
kts
23/11:44pm - - - - - SW 39 57 21 31 - - -
23/11:30pm - - - - - SW 35 41 19 22 - - -
23/11:00pm - - - - - SSW 39 44 21 24 - - -
23/10:30pm - - - - - SSW 37 44 20 24 - - -
23/10:00pm - - - - - SW 33 41 18 22 - - -
23/09:30pm - - - - - SSW 35 41 19 22 - - -
23/09:00pm - - - - - SW 37 44 20 24 - - -
23/08:30pm - - - - - SSW 39 44 21 24 - - -
23/08:00pm - - - - - SSW 39 48 21 26 - - -
23/07:30pm - - - - - SSW 37 44 20 24 - - -
23/07:00pm - - - - - SSW 37 46 20 25 - - -
23/06:30pm - - - - - SSW 35 44 19 24 - - -
23/06:00pm - - - - - SSW 35 43 19 23 - - -
23/05:30pm - - - - - SSW 39 44 21 24 - - -
23/05:00pm - - - - - SSW 35 43 19 23 - - -
23/04:30pm - - - - - SSW 24 35 13 19 - - -
23/04:00pm - - - - - SSW 22 26 12 14 - - -
23/03:30pm - - - - - SSW 19 26 10 14 - - -
23/03:00pm - - - - - SW 28 33 15 18 - - -
23/02:30pm - - - - - SSW 30 35 16 19 - - -
23/02:00pm - - - - - SSW 26 32 14 17 - - -
23/01:30pm - - - - - SSW 26 32 14 17 - - -
23/01:00pm - - - - - SSW 26 32 14 17 - - -
23/12:30pm - - - - - SSW 24 28 13 15 - - -
23/12:00pm - - - - - SSW 24 28 13 15 - - -
23/11:30am - - - - - SSW 28 33 15 18 - - -
23/11:00am - - - - - SSW 26 32 14 17 - - -
23/10:30am - - - - - SSW 26 32 14 17 - - -
23/10:00am - - - - - SSW 26 30 14 16 - - -
23/09:30am - - - - - SSW 24 32 13 17 - - -
23/09:00am - - - - - SSW 26 32 14 17 - - -
23/08:30am - - - - - SSW 26 30 14 16 - - -
23/08:00am - - - - - SSW 22 26 12 14 - - -
23/07:30am - - - - - S 24 30 13 16 - - -
23/07:00am - - - - - SSW 26 30 14 16 - - -
23/06:30am - - - - - SSW 32 37 17 20 - - -
23/06:00am - - - - - SW 30 35 16 19 - - -
23/05:30am - - - - - SW 30 39 16 21 - - -
23/05:00am - - - - - SSW 28 33 15 18 - - -
23/04:30am - - - - - SW 22 28 12 15 - - -
23/04:00am - - - - - SW 24 28 13 15 - - -
23/03:30am - - - - - SW 26 32 14 17 - - -
23/03:00am - - - - - SW 28 32 15 17 - - -
23/02:30am - - - - - SW 26 32 14 17 - - -
23/02:00am - - - - - SW 20 24 11 13 - - -
23/01:30am - - - - - SW 15 24 8 13 - - -
23/01:00am - - - - - SSW 26 30 14 16 - - -
23/12:30am - - - - - SW 32 37 17 20 - - -
23/12:00am - - - - - SW 28 33 15 18 - - -
 
Date/Time
EDT
Temp
°C
App
Temp
°C
Dew
Point
°C
Rel
Hum
%
Delta-T
°C
Wind Press
QNH
hPa
Press
MSL
hPa
Rain since
9am
mm
Dir  Spd
km/h
Gust
km/h
Spd
kts
Gust
kts
22/11:30pm - - - - - SW 26 32 14 17 - - -
22/11:00pm - - - - - SSW 24 30 13 16 - - -
22/10:30pm - - - - - SW 28 33 15 18 - - -
22/10:00pm - - - - - WSW 35 44 19 24 - - -
22/09:30pm - - - - - WSW 30 35 16 19 - - -
22/09:00pm - - - - - SW 22 26 12 14 - - -
22/08:30pm - - - - - SSW 30 35 16 19 - - -
22/08:00pm - - - - - SW 28 33 15 18 - - -
22/07:30pm - - - - - SSW 28 33 15 18 - - -
22/07:00pm - - - - - S 30 35 16 19 - - -
22/06:30pm - - - - - S 19 26 10 14 - - -
22/06:00pm - - - - - SSW 17 20 9 11 - - -
22/05:30pm - - - - - SSW 24 32 13 17 - - -
22/05:00pm - - - - - S 19 20 10 11 - - -
22/04:30pm - - - - - S 24 30 13 16 - - -
22/04:00pm - - - - - S 19 22 10 12 - - -
22/03:30pm - - - - - S 20 24 11 13 - - -
22/03:00pm - - - - - S 19 22 10 12 - - -
22/02:30pm - - - - - S 13 15 7 8 - - -
22/02:00pm - - - - - S 19 22 10 12 - - -
22/01:30pm - - - - - S 19 20 10 11 - - -
22/01:00pm - - - - - NNW 17 26 9 14 - - -
22/12:30pm - - - - - NNW 24 35 13 19 - - -
22/12:00pm - - - - - NNW 28 39 15 21 - - -
22/11:30am - - - - - NNW 24 35 13 19 - - -
22/11:00am - - - - - SSW 7 13 4 7 - - -
22/10:30am - - - - - S 7 11 4 6 - - -
22/10:00am - - - - - SSW 7 9 4 5 - - -
22/09:30am - - - - - SSW 6 7 3 4 - - -
22/09:00am - - - - - WSW 6 6 3 3 - - -
22/08:30am - - - - - WNW 6 6 3 3 - - -
22/08:00am - - - - - WNW 6 6 3 3 - - -
22/07:30am - - - - - N 2 4 1 2 - - -
22/07:00am - - - - - N 4 6 2 3 - - -
22/06:30am - - - - - NNW 6 6 3 3 - - -
22/06:00am - - - - - WNW 6 7 3 4 - - -
22/05:30am - - - - - W 9 9 5 5 - - -
22/05:00am - - - - - WSW 9 9 5 5 - - -
22/04:30am - - - - - WSW 11 19 6 10 - - -
22/04:00am - - - - - WSW 9 11 5 6 - - -
22/03:30am - - - - - SW 15 20 8 11 - - -
22/03:00am - - - - - N 11 19 6 10 - - -
22/02:30am - - - - - N 4 7 2 4 - - -
22/02:00am - - - - - N 2 4 1 2 - - -
22/01:30am - - - - - NW 6 7 3 4 - - -
22/01:00am - - - - - NE 9 11 5 6 - - -
22/12:30am - - - - - NNW 7 7 4 4 - - -
22/12:00am - - - - - N 2 4 1 2 - - -
 
Date/Time
EDT
Temp
°C
App
Temp
°C
Dew
Point
°C
Rel
Hum
%
Delta-T
°C
Wind Press
QNH
hPa
Press
MSL
hPa
Rain since
9am
mm
Dir  Spd
km/h
Gust
km/h
Spd
kts
Gust
kts
21/11:30pm - - - - - NNE 6 9 3 5 - - -

Latest Capital City Observations: Canberra | Sydney | Melbourne | Brisbane | Adelaide | Perth | Hobart | Darwin

Other formats

Comma delimited format used in spreadsheet applications
http://www.bom.gov.au/fwo/IDV60901/IDV60901.95864.axf

JavaScript Object Notation format (JSON) in row-major order
http://www.bom.gov.au/fwo/IDV60901/IDV60901.95864.json

Data quality

Most of these data are generated automatically and are frequently updated. Quality checks on data are not normally performed. It is possible for incorrect values to appear. Refer to information at About Latest Weather Observations and please check the disclaimer before using these data.